Time;durP1;ratioP1;P1;durP2;ratioP2;P2;SDS_P1;SDS_P2;PMS_P1;PMS_P2;Temp;Humidity;BMP_temperature;BMP_pressure;BME280_temperature;BME280_humidity;BME280_pressure;Samples;Min_cycle;Max_cycle;Signal;HPM_P1;HPM_P2
2020/12/02 00:01:10;;;;;;;;;;;9.00;82.30;;;;;;5055930;28;19959;-84
2020/12/02 00:03:47;;;;;;;;;;;9.00;82.30;;;;;;5072650;28;20382;-83
2020/12/02 00:06:12;;;;;;;;;;;9.00;82.30;;;;;;5073791;28;20403;-84
2020/12/02 00:08:51;;;;;;;;;;;9.00;82.30;;;;;;5072386;28;19995;-84
2020/12/02 00:11:17;;;;;;;;;;;9.00;82.30;;;;;;5073748;28;20277;-84
2020/12/02 00:13:45;;;;;;;;;;;8.90;82.30;;;;;;5072032;28;20211;-84
2020/12/02 00:16:18;;;;;;;;;;;8.90;82.90;;;;;;5072056;28;20320;-84
2020/12/02 00:18:44;;;;;;;;;;;8.90;82.30;;;;;;5071848;28;19931;-84
2020/12/02 00:21:09;;;;;;;;;;;8.90;82.30;;;;;;5073505;28;20381;-84
2020/12/02 00:23:35;;;;;;;;;;;8.90;82.20;;;;;;5072145;28;20053;-83
2020/12/02 00:26:01;;;;;;;;;;;8.90;82.20;;;;;;5071532;28;20030;-83
2020/12/02 00:28:26;;;;;;;;;;;8.90;82.20;;;;;;5073196;28;19920;-84
2020/12/02 00:30:53;;;;;;;;;;;8.90;82.30;;;;;;5073577;28;20370;-83
2020/12/02 00:33:21;;;;;;;;;;;8.80;82.30;;;;;;5073269;28;19909;-83
2020/12/02 00:35:46;;;;;;;;;;;8.80;82.30;;;;;;5071543;28;19916;-83
2020/12/02 00:38:13;;;;;;;;;;;8.80;82.40;;;;;;5071739;28;20418;-83
2020/12/02 00:40:44;;;;;;;;;;;8.80;82.50;;;;;;5073097;28;19916;-83
2020/12/02 00:43:10;;;;;;;;;;;8.80;82.50;;;;;;5071943;28;19965;-84
2020/12/02 00:45:36;;;;;;;;;;;8.80;82.60;;;;;;5073039;28;19960;-83
2020/12/02 00:48:01;;;;;;;;;;;8.70;82.60;;;;;;5072432;28;20442;-84
2020/12/02 00:50:27;;;;;;;;;;;8.70;82.50;;;;;;5071917;28;19916;-84
2020/12/02 00:52:59;;;;;;;;;;;8.70;82.50;;;;;;5071188;28;20301;-84
2020/12/02 00:55:24;;;;;;;;;;;8.70;82.50;;;;;;5073086;28;19924;-84
2020/12/02 00:57:50;;;;;;;;;;;8.80;82.50;;;;;;5071046;28;19917;-84
2020/12/02 01:00:16;;;;;;;;;;;8.70;82.50;;;;;;5071557;28;19913;-83
2020/12/02 01:02:49;;;;;;;;;;;8.70;82.60;;;;;;5054356;28;19912;-83
2020/12/02 01:05:15;;;;;;;;;;;8.70;82.50;;;;;;5072987;28;19915;-83
2020/12/02 01:07:41;;;;;;;;;;;8.70;82.50;;;;;;5070691;28;20377;-83
2020/12/02 01:10:08;;;;;;;;;;;8.70;82.50;;;;;;5071214;28;19959;-83
2020/12/02 01:12:34;;;;;;;;;;;8.70;82.50;;;;;;5072519;28;19913;-83
2020/12/02 01:15:00;;;;;;;;;;;8.70;82.50;;;;;;5071997;28;19938;-83
2020/12/02 01:17:25;;;;;;;;;;;8.80;82.50;;;;;;5071418;28;20362;-83
2020/12/02 01:19:51;;;;;;;;;;;8.70;82.50;;;;;;5070646;28;20106;-84
2020/12/02 01:22:34;;;;;;;;;;;8.70;82.60;;;;;;5054336;28;19916;-83
2020/12/02 01:24:59;;;;;;;;;;;8.70;82.70;;;;;;5070303;28;19929;-84
2020/12/02 01:27:29;;;;;;;;;;;8.70;82.80;;;;;;5070617;28;19913;-83
2020/12/02 01:29:55;;;;;;;;;;;8.70;82.70;;;;;;5072172;28;20343;-83
2020/12/02 01:32:21;;;;;;;;;;;8.70;82.70;;;;;;5070804;28;20378;-84
2020/12/02 01:34:48;;;;;;;;;;;8.70;82.70;;;;;;5070369;28;19912;-83
2020/12/02 01:37:14;;;;;;;;;;;8.70;82.70;;;;;;5072034;28;20010;-84
2020/12/02 01:39:46;;;;;;;;;;;8.70;82.60;;;;;;5070640;28;20412;-84
2020/12/02 01:42:12;;;;;;;;;;;8.70;82.60;;;;;;5070580;28;19909;-84
2020/12/02 01:44:39;;;;;;;;;;;8.70;82.60;;;;;;5071733;28;20378;-84
2020/12/02 01:47:28;;;;;;;;;;;8.70;82.60;;;;;;5070246;28;20350;-84
2020/12/02 01:50:12;;;;;;;;;;;8.70;82.60;;;;;;5032631;28;20385;-84
2020/12/02 01:52:58;;;;;;;;;;;8.70;82.60;;;;;;5070452;28;19912;-84
2020/12/02 01:55:27;;;;;;;;;;;8.70;82.50;;;;;;5069592;28;19920;-84
2020/12/02 01:57:55;;;;;;;;;;;8.70;82.50;;;;;;5069831;28;19913;-84
2020/12/02 02:00:23;;;;;;;;;;;8.70;82.50;;;;;;5071437;28;19912;-84
2020/12/02 02:02:59;;;;;;;;;;;8.70;82.50;;;;;;5069896;28;20351;-83
2020/12/02 02:05:25;;;;;;;;;;;8.70;82.50;;;;;;5070279;28;19912;-84
2020/12/02 02:07:51;;;;;;;;;;;8.70;82.60;;;;;;5069978;28;19916;-84
2020/12/02 02:10:31;;;;;;;;;;;8.70;82.60;;;;;;5071638;28;19908;-84
2020/12/02 02:13:15;;;;;;;;;;;8.70;82.60;;;;;;5069781;28;19909;-83
2020/12/02 02:15:44;;;;;;;;;;;8.70;82.60;;;;;;5071341;28;19979;-83
2020/12/02 02:18:11;;;;;;;;;;;8.70;82.60;;;;;;5071525;28;20258;-83
2020/12/02 02:20:38;;;;;;;;;;;8.60;82.60;;;;;;5070030;28;19908;-84
2020/12/02 02:23:05;;;;;;;;;;;8.60;82.60;;;;;;5069692;28;19908;-84
2020/12/02 02:25:31;;;;;;;;;;;8.70;82.70;;;;;;5063588;22;19925;-87
2020/12/02 02:27:57;;;;;;;;;;;8.70;82.70;;;;;;5066464;28;19936;-86
2020/12/02 02:30:23;;;;;;;;;;;8.70;82.70;;;;;;5050239;28;19915;-87
2020/12/02 02:32:49;;;;;;;;;;;8.70;82.60;;;;;;5049550;28;20344;-87
2020/12/02 02:35:15;;;;;;;;;;;8.70;82.50;;;;;;5050257;28;19927;-87
2020/12/02 02:37:40;;;;;;;;;;;8.70;82.50;;;;;;5051454;28;19909;-87
2020/12/02 02:40:08;;;;;;;;;;;8.70;82.60;;;;;;5050253;28;20016;-87
2020/12/02 02:42:38;;;;;;;;;;;8.70;82.50;;;;;;5051284;28;19909;-87
2020/12/02 02:45:07;;;;;;;;;;;8.70;82.60;;;;;;5051174;28;19916;-87
2020/12/02 02:47:33;;;;;;;;;;;8.60;82.50;;;;;;5050168;28;20294;-87
2020/12/02 02:49:58;;;;;;;;;;;8.70;82.60;;;;;;5049896;28;19913;-87
2020/12/02 02:52:24;;;;;;;;;;;8.70;82.60;;;;;;5049991;28;19940;-87
2020/12/02 02:54:49;;;;;;;;;;;8.70;82.50;;;;;;5050568;28;20030;-87
2020/12/02 02:57:15;;;;;;;;;;;8.70;82.40;;;;;;5051162;28;19921;-86
2020/12/02 02:59:40;;;;;;;;;;;8.70;82.40;;;;;;5033259;28;19924;-87
2020/12/02 03:02:10;;;;;;;;;;;8.70;82.30;;;;;;5049870;28;20275;-87
2020/12/02 03:04:35;;;;;;;;;;;8.70;82.30;;;;;;5049872;28;20409;-86
2020/12/02 03:07:01;;;;;;;;;;;8.70;82.40;;;;;;5032938;28;19912;-87
2020/12/02 03:09:26;;;;;;;;;;;8.70;82.30;;;;;;5049892;28;19981;-87
2020/12/02 03:11:53;;;;;;;;;;;8.70;82.30;;;;;;5050784;28;19913;-87
2020/12/02 03:14:18;;;;;;;;;;;8.70;82.30;;;;;;5049763;28;19923;-87
2020/12/02 03:16:46;;;;;;;;;;;8.70;82.30;;;;;;5049923;28;19917;-86
2020/12/02 03:19:18;;;;;;;;;;;8.70;82.30;;;;;;5049328;28;19913;-87
2020/12/02 03:21:44;;;;;;;;;;;8.70;82.20;;;;;;5050991;28;19912;-87
2020/12/02 03:24:10;;;;;;;;;;;8.70;82.20;;;;;;5032441;28;19928;-86
2020/12/02 03:26:36;;;;;;;;;;;8.70;82.20;;;;;;5050841;28;20263;-87
2020/12/02 03:29:02;;;;;;;;;;;8.70;82.20;;;;;;5049416;28;20003;-87
2020/12/02 03:31:27;;;;;;;;;;;8.70;82.20;;;;;;5049610;28;19909;-86
2020/12/02 03:33:53;;;;;;;;;;;8.70;82.20;;;;;;5032820;28;20426;-86
2020/12/02 03:36:19;;;;;;;;;;;8.70;82.20;;;;;;5049533;28;19917;-87
2020/12/02 03:38:45;;;;;;;;;;;8.70;82.20;;;;;;5049491;28;19959;-87
2020/12/02 03:41:11;;;;;;;;;;;8.70;82.30;;;;;;5049232;28;20420;-86
2020/12/02 03:43:37;;;;;;;;;;;8.70;82.30;;;;;;5050830;28;19919;-87
2020/12/02 03:46:03;;;;;;;;;;;8.70;82.30;;;;;;5035991;28;19913;-87
2020/12/02 03:48:28;;;;;;;;;;;8.70;82.20;;;;;;5052999;28;19924;-86
2020/12/02 03:50:54;;;;;;;;;;;8.70;82.20;;;;;;5036076;28;19921;-87
2020/12/02 03:53:19;;;;;;;;;;;8.70;82.10;;;;;;5053091;28;19919;-86
2020/12/02 03:55:46;;;;;;;;;;;8.70;82.10;;;;;;5054031;28;19917;-87
2020/12/02 03:58:12;;;;;;;;;;;8.70;82.10;;;;;;5053751;28;19917;-87
2020/12/02 04:00:38;;;;;;;;;;;8.70;82.10;;;;;;5052901;28;19920;-86
2020/12/02 04:03:04;;;;;;;;;;;8.70;82.20;;;;;;5053898;28;19971;-86
2020/12/02 04:05:29;;;;;;;;;;;8.70;82.20;;;;;;5052843;28;19999;-86
2020/12/02 04:07:55;;;;;;;;;;;8.70;82.20;;;;;;5086080;28;19913;-87
2020/12/02 04:10:20;;;;;;;;;;;8.70;82.20;;;;;;5069305;28;20286;-87
2020/12/02 04:12:46;;;;;;;;;;;8.70;82.10;;;;;;5054030;28;19913;-87
2020/12/02 04:15:16;;;;;;;;;;;8.70;82.10;;;;;;5053512;28;19917;-86
2020/12/02 04:17:42;;;;;;;;;;;8.70;82.10;;;;;;5052652;28;19963;-87
2020/12/02 04:20:08;;;;;;;;;;;8.70;82.20;;;;;;5086007;28;19921;-86
2020/12/02 04:22:34;;;;;;;;;;;8.70;82.30;;;;;;5052430;28;19915;-87
2020/12/02 04:25:00;;;;;;;;;;;8.70;82.40;;;;;;5051031;28;19975;-87
2020/12/02 04:27:25;;;;;;;;;;;8.60;82.40;;;;;;5068919;28;19921;-87
2020/12/02 04:29:51;;;;;;;;;;;8.70;82.40;;;;;;5068737;28;19921;-86
2020/12/02 04:32:16;;;;;;;;;;;8.70;82.50;;;;;;5052488;28;19917;-87
2020/12/02 04:34:41;;;;;;;;;;;8.70;82.50;;;;;;5052254;28;19939;-87
2020/12/02 04:37:07;;;;;;;;;;;8.70;82.50;;;;;;5051987;28;19913;-87
2020/12/02 04:39:32;;;;;;;;;;;8.70;82.50;;;;;;5086507;28;19991;-88
2020/12/02 04:41:58;;;;;;;;;;;8.70;82.50;;;;;;5068927;28;20337;-87
2020/12/02 04:44:24;;;;;;;;;;;8.70;82.60;;;;;;5052299;28;20369;-86
2020/12/02 04:46:53;;;;;;;;;;;8.70;82.60;;;;;;5052897;28;19909;-85
2020/12/02 04:49:21;;;;;;;;;;;8.70;82.50;;;;;;5051909;28;19991;-86
2020/12/02 04:51:50;;;;;;;;;;;8.70;82.60;;;;;;5051869;28;19924;-86
2020/12/02 04:54:17;;;;;;;;;;;8.70;82.50;;;;;;5084725;28;19913;-86
2020/12/02 04:56:44;;;;;;;;;;;8.70;82.50;;;;;;5050979;28;20011;-86
2020/12/02 04:59:10;;;;;;;;;;;8.70;82.40;;;;;;5051100;28;20056;-86
2020/12/02 05:01:45;;;;;;;;;;;8.70;82.40;;;;;;5051573;28;19913;-86
2020/12/02 05:04:16;;;;;;;;;;;8.70;83.00;;;;;;5084751;28;20042;-86
2020/12/02 05:06:43;;;;;;;;;;;8.70;82.40;;;;;;5041304;28;20011;-86
2020/12/02 05:09:11;;;;;;;;;;;8.70;82.30;;;;;;5052250;28;19909;-86
2020/12/02 05:11:40;;;;;;;;;;;8.70;82.30;;;;;;5047864;28;19923;-86
2020/12/02 05:14:10;;;;;;;;;;;8.70;82.20;;;;;;5033941;28;19932;-86
2020/12/02 05:16:36;;;;;;;;;;;8.80;82.30;;;;;;5051393;28;19920;-86
2020/12/02 05:19:06;;;;;;;;;;;8.70;82.20;;;;;;5052696;28;19913;-86
2020/12/02 05:21:41;;;;;;;;;;;8.80;82.30;;;;;;5051690;28;20374;-87
2020/12/02 05:24:08;;;;;;;;;;;8.70;82.30;;;;;;5051080;28;20046;-86
2020/12/02 05:26:35;;;;;;;;;;;8.70;82.40;;;;;;5051032;28;20291;-86
2020/12/02 05:29:03;;;;;;;;;;;8.70;82.40;;;;;;5040330;28;19963;-87
2020/12/02 05:31:31;;;;;;;;;;;8.70;82.50;;;;;;5039287;28;19912;-86
2020/12/02 05:34:08;;;;;;;;;;;8.70;82.50;;;;;;5050620;28;19912;-87
2020/12/02 05:36:37;;;;;;;;;;;8.70;83.10;;;;;;5051024;28;19979;-87
2020/12/02 05:39:05;;;;;;;;;;;8.70;82.50;;;;;;5051990;28;19909;-87
2020/12/02 05:41:31;;;;;;;;;;;8.70;82.60;;;;;;5052174;28;19913;-87
2020/12/02 05:44:03;;;;;;;;;;;8.70;82.60;;;;;;5049861;28;19928;-86
2020/12/02 05:46:35;;;;;;;;;;;8.70;82.60;;;;;;5048251;28;19924;-87
2020/12/02 05:49:05;;;;;;;;;;;8.70;82.60;;;;;;5052254;28;19913;-87
2020/12/02 05:51:31;;;;;;;;;;;8.70;82.60;;;;;;5052548;28;20004;-86
2020/12/02 05:54:04;;;;;;;;;;;8.70;82.50;;;;;;5068154;28;19951;-86
2020/12/02 05:56:30;;;;;;;;;;;8.70;82.50;;;;;;5049898;28;20007;-86
2020/12/02 05:58:55;;;;;;;;;;;8.70;82.50;;;;;;5051808;28;20377;-86
2020/12/02 06:01:21;;;;;;;;;;;8.70;82.50;;;;;;5052576;28;19913;-86
2020/12/02 06:03:52;;;;;;;;;;;8.70;82.50;;;;;;5052364;28;19912;-86
2020/12/02 06:06:18;;;;;;;;;;;8.70;82.50;;;;;;5052129;28;20008;-86
2020/12/02 06:08:46;;;;;;;;;;;8.70;82.40;;;;;;5035418;28;19948;-86
2020/12/02 06:11:17;;;;;;;;;;;8.70;82.40;;;;;;5047116;28;20302;-87
2020/12/02 06:13:48;;;;;;;;;;;8.70;82.40;;;;;;5040575;28;19913;-86
2020/12/02 06:16:22;;;;;;;;;;;8.70;82.40;;;;;;5047268;28;19925;-85
2020/12/02 06:18:48;;;;;;;;;;;8.70;82.40;;;;;;5050828;28;20277;-86
2020/12/02 06:21:32;;;;;;;;;;;8.70;82.30;;;;;;5051268;28;19920;-86
2020/12/02 06:24:00;;;;;;;;;;;8.70;82.30;;;;;;5052816;28;19913;-86
2020/12/02 06:26:35;;;;;;;;;;;8.60;82.30;;;;;;5031542;28;21361;-85
2020/12/02 06:29:03;;;;;;;;;;;8.60;82.30;;;;;;5035887;28;19919;-86
2020/12/02 06:31:30;;;;;;;;;;;8.60;82.30;;;;;;5052007;28;19913;-86
2020/12/02 06:33:56;;;;;;;;;;;8.60;82.30;;;;;;5053004;28;20378;-85
2020/12/02 06:36:29;;;;;;;;;;;8.70;82.30;;;;;;5085737;28;19917;-87
2020/12/02 06:38:58;;;;;;;;;;;8.60;82.20;;;;;;5051642;28;20361;-86
2020/12/02 06:41:34;;;;;;;;;;;8.70;82.30;;;;;;5052157;28;19909;-87
2020/12/02 06:44:08;;;;;;;;;;;8.70;82.20;;;;;;5042292;28;19909;-88
2020/12/02 06:46:57;;;;;;;;;;;8.60;82.20;;;;;;5049156;28;19909;-86
2020/12/02 06:49:24;;;;;;;;;;;8.60;82.20;;;;;;5044967;28;19916;-87
2020/12/02 06:51:57;;;;;;;;;;;8.60;82.10;;;;;;5052610;28;19959;-85
2020/12/02 06:54:23;;;;;;;;;;;8.70;82.20;;;;;;5051419;28;19909;-86
2020/12/02 06:56:53;;;;;;;;;;;8.70;82.20;;;;;;5051828;28;19927;-87
2020/12/02 06:59:18;;;;;;;;;;;8.60;82.20;;;;;;5050760;28;20349;-86
2020/12/02 07:01:44;;;;;;;;;;;8.60;82.20;;;;;;5051801;28;19968;-87
2020/12/02 07:04:16;;;;;;;;;;;8.60;82.20;;;;;;5050176;28;19917;-86
2020/12/02 07:06:42;;;;;;;;;;;8.60;82.20;;;;;;5052142;28;19991;-87
2020/12/02 07:09:13;;;;;;;;;;;8.60;82.10;;;;;;5033633;28;19955;-84
2020/12/02 07:11:46;;;;;;;;;;;8.60;82.10;;;;;;5051784;28;19959;-84
2020/12/02 07:14:23;;;;;;;;;;;8.60;82.10;;;;;;5049228;28;19909;-82
2020/12/02 07:16:55;;;;;;;;;;;8.60;82.00;;;;;;5051152;28;19938;-83
2020/12/02 07:19:24;;;;;;;;;;;8.60;82.10;;;;;;5053806;28;19916;-83
2020/12/02 07:21:51;;;;;;;;;;;8.60;82.10;;;;;;5052797;28;20043;-83
2020/12/02 07:24:46;;;;;;;;;;;8.60;82.20;;;;;;5051336;28;20562;-83
2020/12/02 07:27:12;;;;;;;;;;;8.60;82.20;;;;;;5049293;28;20381;-83
2020/12/02 07:29:37;;;;;;;;;;;8.60;82.10;;;;;;5087135;28;20007;-83
2020/12/02 07:32:05;;;;;;;;;;;8.60;82.20;;;;;;5054233;28;20389;-83
2020/12/02 07:34:33;;;;;;;;;;;8.60;82.20;;;;;;5086550;28;19909;-83
2020/12/02 07:37:00;;;;;;;;;;;8.60;82.10;;;;;;5086236;28;20271;-84
2020/12/02 07:39:26;;;;;;;;;;;8.60;82.10;;;;;;5086636;28;20152;-83
2020/12/02 07:41:55;;;;;;;;;;;8.60;82.00;;;;;;5086581;28;19909;-83
2020/12/02 07:44:21;;;;;;;;;;;8.60;82.00;;;;;;5054291;28;20377;-83
2020/12/02 07:46:48;;;;;;;;;;;8.60;82.00;;;;;;5069579;28;20271;-83
2020/12/02 07:49:13;;;;;;;;;;;8.60;82.00;;;;;;5086104;28;20738;-83
2020/12/02 07:51:43;;;;;;;;;;;8.60;81.90;;;;;;5052511;28;19917;-83
2020/12/02 07:54:13;;;;;;;;;;;8.60;81.90;;;;;;5086107;28;19946;-83
2020/12/02 07:56:39;;;;;;;;;;;8.60;81.90;;;;;;5054038;28;19967;-83
2020/12/02 07:59:14;;;;;;;;;;;8.60;82.00;;;;;;5086186;28;20312;-83
2020/12/02 08:01:46;;;;;;;;;;;8.60;82.00;;;;;;5086335;28;19963;-83
2020/12/02 08:04:20;;;;;;;;;;;8.60;82.00;;;;;;5085819;28;20346;-83
2020/12/02 08:06:57;;;;;;;;;;;8.60;82.00;;;;;;5053885;28;19916;-83
2020/12/02 08:09:23;;;;;;;;;;;8.60;82.00;;;;;;5053897;28;20350;-83
2020/12/02 08:11:53;;;;;;;;;;;8.60;81.90;;;;;;5053797;28;20008;-83
2020/12/02 08:14:32;;;;;;;;;;;8.70;82.00;;;;;;5085674;28;19909;-83
2020/12/02 08:17:12;;;;;;;;;;;8.70;82.00;;;;;;5053232;28;19917;-83
2020/12/02 08:19:40;;;;;;;;;;;8.70;81.90;;;;;;5085858;28;19917;-83
2020/12/02 08:22:09;;;;;;;;;;;8.70;81.90;;;;;;5085508;28;20354;-83
2020/12/02 08:24:41;;;;;;;;;;;8.70;81.90;;;;;;5099371;22;19932;-82
2020/12/02 08:27:07;;;;;;;;;;;8.70;81.90;;;;;;5071856;28;19912;-82
2020/12/02 08:29:33;;;;;;;;;;;8.70;81.90;;;;;;5071555;28;19913;-82
2020/12/02 08:32:00;;;;;;;;;;;8.70;81.90;;;;;;5071541;28;19916;-82
2020/12/02 08:34:28;;;;;;;;;;;8.70;81.80;;;;;;5072062;28;19909;-82
2020/12/02 08:37:14;;;;;;;;;;;8.70;81.80;;;;;;5072214;28;19913;-82
2020/12/02 08:39:41;;;;;;;;;;;8.70;81.90;;;;;;5072138;28;20295;-82
2020/12/02 08:42:09;;;;;;;;;;;8.70;81.80;;;;;;5073001;28;19919;-82
2020/12/02 08:44:35;;;;;;;;;;;8.70;81.80;;;;;;5071958;28;19913;-82
2020/12/02 08:47:00;;;;;;;;;;;8.70;81.80;;;;;;5054822;28;19927;-83
2020/12/02 08:49:28;;;;;;;;;;;8.70;81.80;;;;;;5071804;28;20373;-82
2020/12/02 08:51:53;;;;;;;;;;;8.70;81.80;;;;;;5073116;28;20293;-82
2020/12/02 08:54:22;;;;;;;;;;;8.70;81.80;;;;;;5054596;28;19932;-82
2020/12/02 08:56:48;;;;;;;;;;;8.70;81.80;;;;;;5055214;28;20297;-82
2020/12/02 08:59:13;;;;;;;;;;;8.70;81.70;;;;;;5072562;28;20272;-82
2020/12/02 09:01:39;;;;;;;;;;;8.70;81.80;;;;;;5071576;28;20012;-82
2020/12/02 09:04:05;;;;;;;;;;;8.70;81.70;;;;;;5071187;28;19913;-82
2020/12/02 09:06:31;;;;;;;;;;;8.70;82.40;;;;;;5071409;28;19909;-82
2020/12/02 09:08:56;;;;;;;;;;;8.70;81.80;;;;;;5072701;28;19962;-82
2020/12/02 09:11:24;;;;;;;;;;;8.70;81.80;;;;;;5071219;28;20445;-83
2020/12/02 09:13:49;;;;;;;;;;;8.70;81.80;;;;;;5072517;28;19912;-82
2020/12/02 09:16:19;;;;;;;;;;;8.80;81.80;;;;;;5070921;28;20007;-82
2020/12/02 09:18:44;;;;;;;;;;;8.80;81.80;;;;;;5071094;28;20016;-82
2020/12/02 09:21:09;;;;;;;;;;;8.70;81.70;;;;;;5054091;28;20011;-82
2020/12/02 09:23:35;;;;;;;;;;;8.70;81.80;;;;;;5071148;28;19920;-82
2020/12/02 09:26:00;;;;;;;;;;;8.70;81.80;;;;;;5087301;28;19928;-82
2020/12/02 09:28:26;;;;;;;;;;;8.70;81.80;;;;;;5054319;28;20281;-82
2020/12/02 09:30:51;;;;;;;;;;;8.70;81.80;;;;;;5054518;28;19999;-82
2020/12/02 09:33:17;;;;;;;;;;;8.70;81.80;;;;;;5053866;28;19912;-82
2020/12/02 09:35:42;;;;;;;;;;;8.70;81.80;;;;;;5070914;28;19924;-82
2020/12/02 09:38:08;;;;;;;;;;;8.70;81.70;;;;;;5071713;28;19917;-82
2020/12/02 09:40:33;;;;;;;;;;;8.80;81.80;;;;;;5070675;28;19912;-82
2020/12/02 09:43:25;;;;;;;;;;;8.80;81.80;;;;;;5070358;28;20441;-82
2020/12/02 09:45:54;;;;;;;;;;;8.80;81.70;;;;;;5070722;28;19908;-86
2020/12/02 09:48:23;;;;;;;;;;;8.80;81.70;;;;;;5071664;28;19908;-85
2020/12/02 09:50:48;;;;;;;;;;;8.80;81.60;;;;;;5072000;28;19916;-85
2020/12/02 09:53:16;;;;;;;;;;;8.80;81.60;;;;;;5071549;28;19913;-86
2020/12/02 09:55:41;;;;;;;;;;;8.80;81.60;;;;;;5070629;28;20293;-86
2020/12/02 09:58:08;;;;;;;;;;;8.80;81.50;;;;;;5053556;28;19923;-86
2020/12/02 10:00:34;;;;;;;;;;;8.80;81.50;;;;;;5070480;28;20346;-85
2020/12/02 10:03:02;;;;;;;;;;;8.80;81.50;;;;;;5053382;28;19924;-85
2020/12/02 10:05:28;;;;;;;;;;;8.80;81.50;;;;;;5070444;28;20420;-85
2020/12/02 10:07:59;;;;;;;;;;;8.80;81.50;;;;;;5070438;28;19919;-86
2020/12/02 10:10:25;;;;;;;;;;;8.80;81.50;;;;;;5071704;28;19912;-86
2020/12/02 10:12:56;;;;;;;;;;;8.80;81.40;;;;;;5071573;28;19908;-86
2020/12/02 10:15:35;;;;;;;;;;;8.80;81.40;;;;;;5071207;28;20258;-85
2020/12/02 10:18:06;;;;;;;;;;;8.80;81.40;;;;;;5069841;28;19932;-84
2020/12/02 10:20:40;;;;;;;;;;;8.80;81.40;;;;;;5070159;28;20280;-85
2020/12/02 10:23:15;;;;;;;;;;;8.80;81.40;;;;;;5071113;28;20401;-85
2020/12/02 10:25:43;;;;;;;;;;;8.80;81.30;;;;;;5071222;28;19977;-85
2020/12/02 10:28:24;;;;;;;;;;;8.80;81.90;;;;;;5070965;28;19965;-85
2020/12/02 10:31:05;;;;;;;;;;;8.90;81.30;;;;;;5069998;28;20354;-85
2020/12/02 10:33:33;;;;;;;;;;;8.90;81.30;;;;;;5070005;28;19913;-85
2020/12/02 10:35:59;;;;;;;;;;;8.90;81.40;;;;;;5069908;28;19917;-85
2020/12/02 10:38:37;;;;;;;;;;;8.90;81.40;;;;;;5069681;28;19990;-85
2020/12/02 10:41:13;;;;;;;;;;;8.90;81.30;;;;;;5069623;28;19913;-85
2020/12/02 10:44:07;;;;;;;;;;;8.90;81.30;;;;;;5071303;28;20005;-83
2020/12/02 10:46:40;;;;;;;;;;;8.90;81.30;;;;;;5095019;28;19912;-84
2020/12/02 10:49:21;;;;;;;;;;;8.90;81.30;;;;;;5071441;28;19919;-83
2020/12/02 10:51:49;;;;;;;;;;;8.90;81.30;;;;;;5069896;28;19913;-83
2020/12/02 10:54:15;;;;;;;;;;;8.90;81.30;;;;;;5073411;28;19916;-84
2020/12/02 10:56:44;;;;;;;;;;;8.90;81.30;;;;;;5073957;28;20404;-84
2020/12/02 10:59:12;;;;;;;;;;;8.90;81.30;;;;;;5073801;28;19916;-84
2020/12/02 11:01:39;;;;;;;;;;;8.90;81.30;;;;;;5075675;28;20063;-86
2020/12/02 11:04:06;;;;;;;;;;;8.90;81.30;;;;;;5073676;28;19908;-86
2020/12/02 11:07:00;;;;;;;;;;;8.90;81.30;;;;;;5075247;28;19909;-85
2020/12/02 11:09:41;;;;;;;;;;;8.90;81.30;;;;;;5054983;28;19917;-86
2020/12/02 11:12:18;;;;;;;;;;;8.90;81.30;;;;;;5073592;28;19924;-85
2020/12/02 11:14:47;;;;;;;;;;;8.90;81.20;;;;;;5075619;28;20046;-86
2020/12/02 11:17:26;;;;;;;;;;;8.90;81.20;;;;;;5073284;28;19943;-86
2020/12/02 11:19:55;;;;;;;;;;;8.90;81.20;;;;;;5075018;28;19912;-86
2020/12/02 11:22:40;;;;;;;;;;;8.90;81.20;;;;;;5074560;28;19916;-86
2020/12/02 11:25:14;;;;;;;;;;;8.90;81.20;;;;;;5072811;28;19974;-86
2020/12/02 11:27:41;;;;;;;;;;;9.00;81.20;;;;;;5090531;28;19913;-86
2020/12/02 11:30:09;;;;;;;;;;;8.90;81.20;;;;;;5074410;28;19977;-86
2020/12/02 11:32:43;;;;;;;;;;;9.00;81.30;;;;;;5073480;28;20250;-86
2020/12/02 11:35:18;;;;;;;;;;;9.00;81.20;;;;;;5073100;28;19916;-85
2020/12/02 11:37:56;;;;;;;;;;;9.00;81.20;;;;;;5073508;28;19908;-86
2020/12/02 11:40:25;;;;;;;;;;;9.00;81.20;;;;;;5072893;28;19916;-86
2020/12/02 11:42:57;;;;;;;;;;;9.00;81.20;;;;;;5072741;28;19909;-82
2020/12/02 11:45:33;;;;;;;;;;;9.00;81.20;;;;;;5072165;28;19912;-83
2020/12/02 11:48:05;;;;;;;;;;;9.00;81.20;;;;;;5074240;28;19919;-83
2020/12/02 11:50:56;;;;;;;;;;;9.00;81.20;;;;;;5072883;28;19912;-83
2020/12/02 11:53:40;;;;;;;;;;;9.00;81.20;;;;;;5064956;28;19952;-83
2020/12/02 11:56:07;;;;;;;;;;;9.00;81.20;;;;;;5073673;28;19998;-83
2020/12/02 11:58:33;;;;;;;;;;;9.00;81.20;;;;;;5072548;28;19913;-84
2020/12/02 12:01:03;;;;;;;;;;;9.00;81.10;;;;;;5106666;28;19923;-84
2020/12/02 12:03:40;;;;;;;;;;;9.00;81.10;;;;;;5073979;28;20373;-84
2020/12/02 12:06:12;;;;;;;;;;;9.00;81.10;;;;;;5059649;28;19924;-84
2020/12/02 12:08:43;;;;;;;;;;;9.00;81.20;;;;;;5072051;28;20278;-83
2020/12/02 12:11:13;;;;;;;;;;;9.00;81.10;;;;;;5073373;28;19919;-85
2020/12/02 12:13:42;;;;;;;;;;;9.00;81.10;;;;;;5072483;28;19916;-85
2020/12/02 12:16:14;;;;;;;;;;;9.00;81.10;;;;;;5071909;28;19912;-85
2020/12/02 12:18:40;;;;;;;;;;;9.00;81.10;;;;;;5073807;28;19912;-85
2020/12/02 12:21:12;;;;;;;;;;;9.00;81.10;;;;;;5071887;28;20296;-86
2020/12/02 12:23:44;;;;;;;;;;;9.00;81.10;;;;;;5072269;28;19999;-86
2020/12/02 12:26:10;;;;;;;;;;;9.10;81.20;;;;;;5073158;28;19928;-85
2020/12/02 12:28:35;;;;;;;;;;;9.10;81.10;;;;;;5072196;28;19915;-86
2020/12/02 12:31:03;;;;;;;;;;;9.10;81.10;;;;;;5050265;28;20306;-86
2020/12/02 12:33:33;;;;;;;;;;;9.10;81.10;;;;;;5051439;28;20379;-86
2020/12/02 12:36:02;;;;;;;;;;;9.10;81.10;;;;;;5054030;28;20059;-86
2020/12/02 12:38:30;;;;;;;;;;;9.10;81.10;;;;;;5071252;28;19917;-86
2020/12/02 12:40:59;;;;;;;;;;;9.10;81.10;;;;;;5071562;28;19913;-86
2020/12/02 12:43:27;;;;;;;;;;;9.10;81.10;;;;;;5072933;28;19909;-85
2020/12/02 12:45:56;;;;;;;;;;;9.10;81.10;;;;;;5072904;28;19960;-86
2020/12/02 12:48:23;;;;;;;;;;;9.10;81.10;;;;;;5071211;28;20362;-86
2020/12/02 12:50:49;;;;;;;;;;;9.10;81.10;;;;;;5071641;28;19919;-86
2020/12/02 12:53:17;;;;;;;;;;;9.10;81.10;;;;;;5063320;28;20018;-86
2020/12/02 12:55:42;;;;;;;;;;;9.00;81.00;;;;;;5071983;28;20015;-86
2020/12/02 12:58:10;;;;;;;;;;;9.10;81.10;;;;;;5070074;28;20520;-86
2020/12/02 13:00:43;;;;;;;;;;;9.00;81.00;;;;;;5055015;28;20007;-85
2020/12/02 13:03:14;;;;;;;;;;;9.10;81.10;;;;;;5057490;28;19916;-86
2020/12/02 13:05:40;;;;;;;;;;;9.00;81.00;;;;;;5073704;28;19916;-86
2020/12/02 13:08:09;;;;;;;;;;;9.00;81.00;;;;;;5058611;28;19916;-85
2020/12/02 13:10:42;;;;;;;;;;;9.10;81.10;;;;;;5052612;28;19909;-86
2020/12/02 13:13:10;;;;;;;;;;;9.10;81.10;;;;;;5050872;28;20050;-86
2020/12/02 13:15:45;;;;;;;;;;;9.10;81.00;;;;;;5054163;28;19938;-86
2020/12/02 13:18:19;;;;;;;;;;;9.10;81.10;;;;;;5065690;28;19913;-86
2020/12/02 13:20:45;;;;;;;;;;;9.10;81.10;;;;;;5072682;28;20418;-86
2020/12/02 13:23:13;;;;;;;;;;;9.10;81.10;;;;;;5057105;28;20007;-85
2020/12/02 13:25:59;;;;;;;;;;;9.10;81.10;;;;;;5052236;28;19935;-86
2020/12/02 13:28:35;;;;;;;;;;;9.00;81.00;;;;;;5030070;28;20286;-86
2020/12/02 13:31:04;;;;;;;;;;;9.00;81.10;;;;;;5052827;28;20409;-86
2020/12/02 13:33:37;;;;;;;;;;;9.00;81.10;;;;;;5033475;28;19919;-85
2020/12/02 13:36:15;;;;;;;;;;;9.00;81.10;;;;;;5014308;28;20201;-85
2020/12/02 13:38:41;;;;;;;;;;;9.00;81.00;;;;;;5019911;28;19912;-86
2020/12/02 13:41:07;;;;;;;;;;;9.00;81.10;;;;;;5033342;28;20259;-86
2020/12/02 13:43:33;;;;;;;;;;;9.00;81.00;;;;;;5017353;28;19939;-86
2020/12/02 13:45:59;;;;;;;;;;;9.00;81.00;;;;;;5033741;28;20250;-86
2020/12/02 13:48:25;;;;;;;;;;;9.00;81.00;;;;;;5044452;28;19912;-86
2020/12/02 13:50:52;;;;;;;;;;;9.00;81.00;;;;;;5058475;28;19916;-86
2020/12/02 13:53:29;;;;;;;;;;;9.00;81.00;;;;;;5034360;28;19967;-86
2020/12/02 13:56:15;;;;;;;;;;;9.00;81.00;;;;;;5049619;28;19925;-86
2020/12/02 13:59:04;;;;;;;;;;;9.00;81.00;;;;;;5040651;28;19917;-86
2020/12/02 14:01:33;;;;;;;;;;;9.00;81.00;;;;;;5051744;28;19909;-86
2020/12/02 14:04:08;;;;;;;;;;;9.00;81.00;;;;;;5034177;28;20383;-86
2020/12/02 14:06:49;;;;;;;;;;;9.00;81.00;;;;;;5051740;28;19909;-86
2020/12/02 14:09:15;;;;;;;;;;;9.00;81.00;;;;;;5051164;28;20007;-85
2020/12/02 14:12:13;;;;;;;;;;;9.00;81.00;;;;;;5033173;28;19912;-85
2020/12/02 14:14:40;;;;;;;;;;;9.00;81.00;;;;;;5028273;28;19956;-86
2020/12/02 14:17:06;;;;;;;;;;;9.00;81.00;;;;;;5033847;28;19917;-85
2020/12/02 14:19:33;;;;;;;;;;;9.00;81.00;;;;;;5033305;28;19912;-85
2020/12/02 14:22:16;;;;;;;;;;;9.00;81.00;;;;;;5033493;28;19942;-86
2020/12/02 14:24:46;;;;;;;;;;;9.00;81.00;;;;;;5037610;23;19925;-83
2020/12/02 14:27:14;;;;;;;;;;;9.00;81.00;;;;;;5046480;28;19957;-83
2020/12/02 14:29:40;;;;;;;;;;;9.00;81.00;;;;;;5029731;28;20018;-83
2020/12/02 14:32:05;;;;;;;;;;;9.00;81.00;;;;;;5030196;28;20413;-83
2020/12/02 14:34:31;;;;;;;;;;;9.00;81.00;;;;;;5029963;28;19959;-83
2020/12/02 14:36:58;;;;;;;;;;;9.00;81.00;;;;;;5031354;28;20003;-83
2020/12/02 14:39:23;;;;;;;;;;;9.00;81.00;;;;;;5013348;28;20263;-83
2020/12/02 14:41:49;;;;;;;;;;;9.00;81.00;;;;;;5029984;28;19921;-83
2020/12/02 14:44:14;;;;;;;;;;;9.00;81.00;;;;;;5012992;28;19917;-83